Ulceby, United Kingdom
Current Conditions -  °F | °C
As of 6:20 AM on Tuesday 21 Oct 2014 (Local Time) from EGNJ Reporting Station
Light Rain Light Rain  
Wind Chill: 55°   Ceiling: 1500
Heat Index: 55°   Visibility: 6mi
Dew Point: 52°   Wind: 26mph
Humidity: 88%   Direction: 200°SSW
Pressure: 29.32"   Gusts: NA
Location:  53.58°N, 0.32°W
Report Text: EGNJ 210520Z 20023KT 9999 -RA SCT010 BKN015 13/11 Q0993
Loading
Personal Weather Stations






























Interactive Weather Map
Tropical Storm Tracking
New forecast layout! Learn more

10-Day Weather Forecast

Advertisements
Track Severe Weather on mobile